Time;durP1;ratioP1;P1;durP2;ratioP2;P2;SDS_P1;SDS_P2;PMS_P1;PMS_P2;Temp;Humidity;BMP_temperature;BMP_pressure;BME280_temperature;BME280_humidity;BME280_pressure;Samples;Min_cycle;Max_cycle;Signal;HPM_P1;HPM_P2
2022/01/14 00:01:47;;;;;;;18.37;9.45;;;;;;;6.81;41.42;99801.19;1727503;82;20997;-65
2022/01/14 00:04:13;;;;;;;20.62;11.12;;;;;;;6.00;42.72;99830.73;1719382;82;20990;-66
2022/01/14 00:06:40;;;;;;;19.77;10.48;;;;;;;5.96;43.19;99844.48;1732775;82;21081;-67
2022/01/14 00:09:09;;;;;;;18.20;10.28;;;;;;;6.09;43.08;99852.53;1730026;82;21478;-66
2022/01/14 00:11:40;;;;;;;19.17;11.18;;;;;;;6.47;42.67;99865.73;1732970;82;21977;-66
2022/01/14 00:14:10;;;;;;;17.35;10.38;;;;;;;7.00;41.84;99843.52;1731049;82;20917;-68
2022/01/14 00:16:36;;;;;;;19.35;10.80;;;;;;;7.32;41.26;99833.95;1732664;82;21065;-72
2022/01/14 00:19:04;;;;;;;18.07;11.05;;;;;;;6.88;41.86;99833.22;1732437;82;20995;-67
2022/01/14 00:21:35;;;;;;;20.35;12.30;;;;;;;6.78;42.20;99830.02;1732733;82;21121;-66
2022/01/14 00:24:24;;;;;;;22.52;12.82;;;;;;;7.12;41.73;99802.96;1737084;82;21239;-67
2022/01/14 00:31:42;;;;;;;19.27;11.10;;;;;;;7.24;41.71;99782.97;1732551;82;21036;-66
2022/01/14 00:32:07;;;;;;;18.77;11.12;;;;;;;7.03;41.83;99787.95;1728252;81;21540;-68
2022/01/14 00:34:30;;;;;;;20.30;12.05;;;;;;;6.87;41.67;99772.52;1724144;82;20930;-66
2022/01/14 00:37:00;;;;;;;20.90;11.93;;;;;;;6.48;42.82;99767.69;1733895;82;21773;-67
2022/01/14 00:39:26;;;;;;;22.60;11.53;;;;;;;6.25;43.45;99771.95;1732734;82;20935;-70
2022/01/14 00:41:53;;;;;;;22.93;12.50;;;;;;;6.13;43.66;99770.70;1733375;82;20906;-65
2022/01/14 00:44:19;;;;;;;22.25;12.07;;;;;;;6.15;44.05;99766.19;1731540;82;21528;-66
2022/01/14 00:46:47;;;;;;;18.85;11.57;;;;;;;6.41;43.67;99755.09;1698880;84;21094;-65
2022/01/14 00:49:15;;;;;;;24.35;12.75;;;;;;;6.47;43.49;99749.22;1659153;85;21166;-69
2022/01/14 00:51:42;;;;;;;22.10;12.75;;;;;;;6.60;43.52;99739.63;1699391;83;21123;-66
2022/01/14 00:54:09;;;;;;;24.40;12.98;;;;;;;6.70;43.29;99742.80;1674274;84;21165;-65
2022/01/14 00:56:48;;;;;;;23.00;13.10;;;;;;;7.02;42.88;99741.80;1670123;85;21099;-65
2022/01/14 00:59:16;;;;;;;21.25;12.40;;;;;;;7.10;42.76;99743.53;1669329;84;21024;-66
2022/01/14 01:01:58;;;;;;;21.35;12.58;;;;;;;6.51;43.67;99749.69;1670554;85;21187;-67
2022/01/14 01:04:30;;;;;;;19.80;11.50;;;;;;;6.96;43.17;99753.34;1688602;84;21117;-67
2022/01/14 01:06:56;;;;;;;;;;;;;;;7.26;42.76;99743.90;1729926;82;21052;-66
2022/01/14 01:09:29;;;;;;;22.48;11.90;;;;;;;7.43;42.38;99736.31;1727696;82;20143;-65
2022/01/14 01:11:55;;;;;;;25.32;12.05;;;;;;;6.99;43.10;99728.39;1726240;82;20998;-67
2022/01/14 01:14:28;;;;;;;21.23;11.57;;;;;;;6.91;43.40;99705.93;1727018;82;21328;-69
2022/01/14 01:16:51;;;;;;;21.33;12.73;;;;;;;6.69;43.82;99678.23;1726723;82;21375;-66
2022/01/14 01:19:17;;;;;;;21.95;12.33;;;;;;;6.86;43.78;99691.86;1727637;82;21626;-66
2022/01/14 01:21:46;;;;;;;23.70;12.28;;;;;;;7.14;43.41;99694.75;1697785;84;21078;-68
2022/01/14 01:24:14;;;;;;;19.42;11.90;;;;;;;7.14;43.31;99703.33;1726716;82;21523;-67
2022/01/14 01:26:42;;;;;;;22.30;12.20;;;;;;;7.13;43.55;99696.54;1727451;82;21172;-66
2022/01/14 01:31:40;;;;;;;23.35;13.00;;;;;;;7.06;43.77;99685.25;1727384;82;21033;-70
2022/01/14 01:34:16;;;;;;;22.82;13.13;;;;;;;7.28;43.45;99663.69;1725470;82;21142;-68
2022/01/14 01:36:54;;;;;;;19.90;13.05;;;;;;;7.53;43.17;99668.63;1727441;82;20970;-66
2022/01/14 01:39:26;;;;;;;22.42;12.55;;;;;;;7.58;43.08;99674.56;1717782;82;21142;-67
2022/01/14 01:41:56;;;;;;;24.95;13.62;;;;;;;8.34;41.95;99659.09;1726826;82;21936;-66
2022/01/14 01:44:23;;;;;;;20.65;13.50;;;;;;;7.40;43.12;99652.39;1727665;82;20938;-67
2022/01/14 01:46:50;;;;;;;22.27;12.30;;;;;;;6.87;44.31;99642.48;1727571;82;21018;-68
2022/01/14 01:49:20;;;;;;;23.55;14.07;;;;;;;7.27;43.87;99645.70;1727458;82;21747;-68
2022/01/14 01:51:48;;;;;;;20.75;12.30;;;;;;;7.05;44.32;99648.17;1727245;82;21079;-67
2022/01/14 01:54:15;;;;;;;21.97;13.20;;;;;;;7.10;44.44;99645.55;1717309;82;21084;-67
2022/01/14 01:56:42;;;;;;;20.27;12.43;;;;;;;7.35;44.06;99644.34;1727491;82;21598;-66
2022/01/14 01:59:09;;;;;;;23.92;13.30;;;;;;;7.58;43.68;99647.34;1727775;82;21017;-67
2022/01/14 02:01:40;;;;;;;21.15;12.70;;;;;;;7.49;43.83;99634.95;1727360;82;21058;-70
2022/01/14 02:04:06;;;;;;;24.77;13.90;;;;;;;7.70;43.55;99620.79;1725966;82;23003;-65
2022/01/14 02:06:37;;;;;;;23.18;13.45;;;;;;;7.27;44.15;99635.33;1727582;82;21554;-63
2022/01/14 02:09:04;;;;;;;19.67;11.73;;;;;;;6.96;44.59;99633.66;1727180;82;21027;-70
2022/01/14 02:11:31;;;;;;;24.77;14.03;;;;;;;6.88;45.18;99628.55;1727221;82;21124;-67
2022/01/14 02:14:01;;;;;;;19.15;12.28;;;;;;;7.05;44.88;99631.33;1727206;82;20989;-67
2022/01/14 02:16:33;;;;;;;24.65;13.88;;;;;;;7.74;44.05;99616.05;1708555;82;21181;-67
2022/01/14 02:19:26;;;;;;;;;;;;;;;7.88;43.50;99597.07;1710768;82;21599;-68
2022/01/14 02:26:54;;;;;;;25.77;15.13;;;;;;;7.86;43.38;99596.94;1710105;82;21054;-70
2022/01/14 02:29:21;;;;;;;24.20;14.20;;;;;;;8.09;43.25;99577.33;1709254;82;21372;-69
2022/01/14 02:31:48;;;;;;;21.77;13.40;;;;;;;8.30;42.85;99573.47;1706613;82;21010;-69
2022/01/14 02:34:15;;;;;;;24.25;14.83;;;;;;;8.23;42.91;99561.70;1705371;82;21091;-68
2022/01/14 02:36:44;;;;;;;25.25;14.43;;;;;;;8.58;42.36;99563.16;1705002;82;20947;-71
2022/01/14 02:39:14;;;;;;;21.05;12.63;;;;;;;8.52;42.43;99565.19;1708055;82;21058;-71
2022/01/14 02:41:43;;;;;;;17.98;11.15;;;;;;;8.94;41.84;99556.55;1705354;82;21123;-69
2022/01/14 02:44:18;;;;;;;20.43;12.13;;;;;;;8.88;41.63;99552.60;1707666;82;21050;-69
2022/01/14 02:46:53;;;;;;;20.88;12.70;;;;;;;8.69;42.08;99550.16;1710411;81;21049;-68
2022/01/14 02:49:10;;;;;;;19.95;12.35;;;;;;;8.79;41.90;99529.86;1707054;82;22641;-68
2022/01/14 02:51:39;;;;;;;22.62;13.38;;;;;;;8.98;41.53;99516.19;1709174;82;21050;-67
2022/01/14 02:54:15;;;;;;;21.05;12.58;;;;;;;9.05;41.50;99519.30;1708688;82;21043;-70
2022/01/14 02:56:43;;;;;;;19.02;11.68;;;;;;;8.99;41.46;99508.69;1704469;82;20970;-67
2022/01/14 02:59:12;;;;;;;27.00;13.90;;;;;;;8.92;41.53;99499.24;1707159;82;21084;-68
2022/01/14 03:01:39;;;;;;;24.07;13.90;;;;;;;8.91;41.68;99493.25;1705552;82;21054;-68
2022/01/14 03:04:05;;;;;;;24.65;14.65;;;;;;;9.12;41.37;99480.65;1710615;82;21048;-67
2022/01/14 03:06:32;;;;;;;22.75;12.70;;;;;;;9.32;41.20;99478.16;1710532;82;21144;-69
2022/01/14 03:08:59;;;;;;;29.87;16.37;;;;;;;9.39;40.87;99469.06;1718779;81;20938;-69
2022/01/14 03:11:30;;;;;;;25.32;14.45;;;;;;;9.60;40.62;99459.05;1719096;82;21019;-67
2022/01/14 03:13:57;;;;;;;23.05;14.18;;;;;;;9.60;40.58;99451.23;1714852;82;20915;-66
2022/01/14 03:16:24;;;;;;;27.17;15.80;;;;;;;9.54;40.77;99442.91;1709537;82;21022;-66
2022/01/14 03:18:53;;;;;;;27.25;15.18;;;;;;;9.72;40.32;99440.55;1711366;82;21166;-69
2022/01/14 03:21:28;;;;;;;26.68;14.58;;;;;;;9.85;40.18;99431.95;1711658;82;21392;-67
2022/01/14 03:24:16;;;;;;;23.22;14.50;;;;;;;9.85;40.23;99418.94;1713681;82;21070;-67
2022/01/14 03:26:32;;;;;;;21.07;13.48;;;;;;;9.19;41.08;99416.98;1716542;82;21066;-69
2022/01/14 03:29:00;;;;;;;26.27;14.73;;;;;;;9.36;41.12;99422.16;1688013;82;21685;-68
2022/01/14 03:31:27;;;;;;;25.23;14.55;;;;;;;9.25;41.11;99396.72;1712995;82;21187;-68
2022/01/14 03:33:55;;;;;;;23.87;14.45;;;;;;;9.27;41.21;99386.91;1711764;82;21481;-67
2022/01/14 03:36:22;;;;;;;23.92;13.62;;;;;;;9.31;41.30;99385.52;1709041;82;20990;-68
2022/01/14 03:38:48;;;;;;;21.00;13.25;;;;;;;9.34;41.23;99373.92;1711499;82;21080;-68
2022/01/14 03:41:15;;;;;;;22.17;13.10;;;;;;;9.47;40.97;99366.97;1729667;81;21084;-68
2022/01/14 03:43:44;;;;;;;23.87;13.28;;;;;;;9.32;41.38;99359.00;1721941;81;21583;-68
2022/01/14 03:46:12;;;;;;;24.27;14.13;;;;;;;8.80;42.03;99353.95;1732974;81;20949;-70
2022/01/14 03:48:41;;;;;;;23.10;15.05;;;;;;;9.32;41.62;99341.62;1729652;81;21500;-68
2022/01/14 03:51:07;;;;;;;24.90;13.95;;;;;;;9.08;41.80;99339.05;1715006;81;21170;-69
2022/01/14 03:53:35;;;;;;;24.25;14.43;;;;;;;9.26;41.65;99330.20;1737949;81;20891;-68
2022/01/14 03:56:05;;;;;;;25.37;14.85;;;;;;;9.23;41.64;99324.08;1732471;81;23208;-67
2022/01/14 03:58:34;;;;;;;28.32;16.32;;;;;;;9.14;41.87;99314.87;1738039;81;21014;-69
2022/01/14 04:01:01;;;;;;;24.15;15.35;;;;;;;9.01;42.24;99300.03;1734514;79;21027;-67
2022/01/14 04:03:29;;;;;;;22.73;14.95;;;;;;;8.47;42.79;99306.03;1740431;80;21425;-67
2022/01/14 04:05:57;;;;;;;25.32;14.75;;;;;;;8.33;43.53;99308.72;1741263;80;21085;-68
2022/01/14 04:08:25;;;;;;;24.77;14.83;;;;;;;8.48;43.45;99291.24;1739175;80;21240;-69
2022/01/14 04:10:56;;;;;;;25.88;15.50;;;;;;;8.63;43.31;99294.50;1699942;82;21435;-68
2022/01/14 04:13:35;;;;;;;21.80;13.68;;;;;;;8.63;43.47;99296.30;1732872;82;20978;-67
2022/01/14 04:15:51;;;;;;;23.47;14.58;;;;;;;8.86;43.26;99288.98;1740248;81;21005;-68
2022/01/14 04:18:20;;;;;;;26.37;16.27;;;;;;;8.74;43.43;99286.16;1735964;81;21013;-68
2022/01/14 04:20:48;;;;;;;21.65;13.55;;;;;;;8.73;43.58;99288.96;1738019;81;21234;-69
2022/01/14 04:23:18;;;;;;;23.60;14.87;;;;;;;8.67;43.85;99291.02;1726842;81;22074;-67
2022/01/14 04:25:45;;;;;;;21.42;13.05;;;;;;;8.99;43.35;99273.44;1736543;81;21062;-67
2022/01/14 04:28:14;;;;;;;26.75;14.63;;;;;;;8.88;43.36;99271.41;1731669;81;21520;-70
2022/01/14 04:30:40;;;;;;;23.75;14.50;;;;;;;8.75;43.80;99268.77;1736578;81;21029;-68
2022/01/14 04:33:07;;;;;;;25.45;15.00;;;;;;;8.56;44.08;99261.23;1731985;82;22604;-70
2022/01/14 04:35:36;;;;;;;22.50;14.18;;;;;;;8.65;44.14;99254.06;1740867;81;21493;-69
2022/01/14 04:38:03;;;;;;;21.52;13.60;;;;;;;8.80;43.79;99256.01;1696538;82;21003;-70
2022/01/14 04:40:32;;;;;;;26.82;15.18;;;;;;;8.71;44.13;99259.76;1732863;82;21168;-68
2022/01/14 04:43:00;;;;;;;23.30;14.63;;;;;;;8.76;44.10;99256.09;1729547;82;21009;-71
2022/01/14 04:48:05;;;;;;;23.87;14.25;;;;;;;9.22;43.45;99247.59;1737829;81;21023;-69
2022/01/14 04:50:34;;;;;;;24.45;15.43;;;;;;;8.86;43.96;99253.91;1736859;81;20979;-69
2022/01/14 04:53:01;;;;;;;27.62;15.63;;;;;;;9.10;43.73;99236.97;1692773;84;21504;-66
2022/01/14 04:55:29;;;;;;;24.45;14.68;;;;;;;8.94;43.87;99240.75;1736916;81;21582;-70
2022/01/14 04:57:58;;;;;;;27.02;16.25;;;;;;;9.13;43.80;99230.56;1737261;81;21355;-66
2022/01/14 05:00:28;;;;;;;24.77;14.40;;;;;;;9.04;43.98;99228.66;1695378;84;21142;-68
2022/01/14 05:02:55;;;;;;;25.77;15.38;;;;;;;9.16;43.80;99223.66;1742471;80;20923;-67
2022/01/14 05:05:27;;;;;;;27.42;15.85;;;;;;;9.48;43.57;99223.39;1748767;81;21679;-67
2022/01/14 05:07:53;;;;;;;;;;;;;;;9.15;43.69;99240.27;1751736;81;21042;-67
2022/01/14 05:10:36;;;;;;;28.17;15.40;;;;;;;9.72;43.20;99236.27;1746165;81;21149;-68
2022/01/14 05:12:57;;;;;;;25.30;14.80;;;;;;;9.69;43.05;99232.77;1747246;81;20970;-67
2022/01/14 05:15:23;;;;;;;25.62;16.62;;;;;;;9.92;42.77;99232.32;1749749;80;20919;-68
2022/01/14 05:17:53;;;;;;;25.00;15.23;;;;;;;10.21;42.42;99230.55;1747726;80;20926;-68
2022/01/14 05:20:19;;;;;;;24.90;15.53;;;;;;;10.29;42.17;99232.66;1751008;80;21634;-69
2022/01/14 05:22:51;;;;;;;25.00;14.83;;;;;;;10.37;42.03;99237.13;1746446;80;21118;-66
2022/01/14 05:25:17;;;;;;;24.55;15.25;;;;;;;10.42;41.99;99228.20;1746253;80;21046;-65
2022/01/14 05:27:44;;;;;;;27.58;15.58;;;;;;;10.43;41.96;99219.38;1748974;80;21098;-68
2022/01/14 05:30:12;;;;;;;26.10;15.20;;;;;;;10.77;41.52;99218.71;1749672;80;21750;-66
2022/01/14 05:32:47;;;;;;;30.20;16.57;;;;;;;10.56;41.63;99211.20;1750528;80;21493;-68
2022/01/14 05:35:18;;;;;;;27.22;15.43;;;;;;;10.58;41.82;99214.41;1750475;80;21165;-65
2022/01/14 05:37:44;;;;;;;27.58;16.52;;;;;;;10.83;41.52;99212.64;1745862;80;21479;-64
2022/01/14 05:40:12;;;;;;;26.87;15.58;;;;;;;10.51;42.02;99208.42;1751003;80;21002;-64
2022/01/14 05:42:41;;;;;;;29.23;16.25;;;;;;;9.89;43.16;99193.20;1745766;81;20995;-64
2022/01/14 05:45:09;;;;;;;26.42;17.05;;;;;;;9.66;43.56;99192.83;1744455;81;21039;-62
2022/01/14 05:47:36;;;;;;;29.63;17.77;;;;;;;9.65;43.80;99186.03;1748060;80;21170;-67
2022/01/14 05:50:07;;;;;;;25.97;15.80;;;;;;;9.54;44.10;99171.04;1745769;80;20923;-63
2022/01/14 05:52:37;;;;;;;26.40;16.55;;;;;;;9.47;44.36;99170.56;1745698;81;20999;-61
2022/01/14 05:55:05;;;;;;;27.13;16.60;;;;;;;9.51;44.49;99161.86;1743419;82;21602;-63
2022/01/14 05:57:34;;;;;;;31.57;18.10;;;;;;;9.47;44.73;99161.46;1742962;82;20986;-67
2022/01/14 06:00:09;;;;;;;30.27;17.45;;;;;;;9.62;44.68;99152.61;1749218;81;21307;-63
2022/01/14 06:02:38;;;;;;;29.85;17.20;;;;;;;9.69;44.64;99165.11;1747080;81;20871;-61
2022/01/14 06:05:05;;;;;;;26.25;16.15;;;;;;;9.75;44.68;99153.89;1748438;81;20920;-68
2022/01/14 06:07:32;;;;;;;30.17;16.60;;;;;;;9.92;44.47;99151.62;1746420;80;21073;-62
2022/01/14 06:09:59;;;;;;;27.17;15.95;;;;;;;9.88;44.66;99152.53;1749327;80;21199;-64
2022/01/14 06:12:25;;;;;;;28.80;16.27;;;;;;;9.96;44.51;99144.52;1753272;80;22663;-66
2022/01/14 06:14:52;;;;;;;25.82;15.00;;;;;;;9.89;44.77;99155.45;1747408;80;21023;-63
2022/01/14 06:17:18;;;;;;;27.98;16.95;;;;;;;10.17;44.47;99151.74;1747565;80;20991;-65
2022/01/14 06:19:45;;;;;;;27.95;16.75;;;;;;;10.31;44.45;99144.70;1748373;80;21053;-64
2022/01/14 06:22:12;;;;;;;29.85;17.85;;;;;;;10.10;44.67;99133.53;1745473;81;20938;-63
2022/01/14 06:24:38;;;;;;;31.27;16.55;;;;;;;10.03;45.24;99117.64;1748383;81;21145;-66
2022/01/14 06:27:05;;;;;;;27.67;16.52;;;;;;;9.98;45.63;99107.36;1750506;80;21008;-68
2022/01/14 06:29:32;;;;;;;27.05;16.10;;;;;;;10.17;45.44;99095.75;1753041;80;20978;-64
2022/01/14 06:31:58;;;;;;;26.35;16.75;;;;;;;10.12;46.19;99090.38;1749559;80;21077;-63
2022/01/14 06:34:27;;;;;;;27.87;16.52;;;;;;;10.26;46.20;99074.98;1756380;80;21014;-66
2022/01/14 06:36:54;;;;;;;25.68;16.30;;;;;;;9.95;46.95;99066.11;1750556;80;21190;-68
2022/01/14 06:39:20;;;;;;;27.17;17.27;;;;;;;10.45;46.03;99045.43;1749966;80;21053;-67
2022/01/14 06:41:49;;;;;;;26.25;15.75;;;;;;;11.07;45.11;99025.94;1754807;80;21065;-68
2022/01/14 06:44:18;;;;;;;28.50;16.15;;;;;;;10.80;45.47;99028.00;1750078;80;20995;-63
2022/01/14 06:46:47;;;;;;;22.75;14.53;;;;;;;10.86;45.46;99018.00;1753684;80;20976;-62
2022/01/14 06:49:13;;;;;;;24.35;15.53;;;;;;;10.76;45.64;99000.77;1749995;80;21155;-62
2022/01/14 06:51:40;;;;;;;23.87;15.08;;;;;;;10.25;46.57;99004.38;1755022;80;21537;-64
2022/01/14 06:54:06;;;;;;;23.22;14.13;;;;;;;10.31;46.44;98985.31;1748404;80;21102;-62
2022/01/14 06:56:33;;;;;;;25.27;15.03;;;;;;;10.69;45.98;98979.19;1755859;80;20951;-61
2022/01/14 06:59:00;;;;;;;25.00;15.30;;;;;;;11.06;45.47;98963.55;1750367;80;20978;-67
2022/01/14 07:01:26;;;;;;;23.02;14.83;;;;;;;10.93;45.39;98963.99;1749439;80;21125;-61
2022/01/14 07:03:55;;;;;;;22.15;13.38;;;;;;;10.32;46.45;98954.34;1689402;83;21016;-63
2022/01/14 07:06:22;;;;;;;22.85;13.70;;;;;;;10.35;47.00;98954.44;1729224;81;21079;-60
2022/01/14 07:08:51;;;;;;;20.12;13.43;;;;;;;10.30;47.45;98953.75;1730884;81;21321;-66
2022/01/14 07:11:18;;;;;;;20.00;13.08;;;;;;;10.48;47.36;98936.86;1722683;81;21148;-61
2022/01/14 07:13:44;;;;;;;20.82;12.68;;;;;;;10.36;47.56;98935.97;1729792;81;21148;-66
2022/01/14 07:16:11;;;;;;;20.20;13.40;;;;;;;10.78;47.08;98934.87;1724431;81;20994;-63
2022/01/14 07:18:37;;;;;;;20.60;12.53;;;;;;;9.72;48.88;98939.62;1723533;81;21010;-65
2022/01/14 07:21:04;;;;;;;22.22;12.78;;;;;;;10.84;47.67;98911.86;1728149;81;21584;-66
2022/01/14 07:23:31;;;;;;;19.37;12.65;;;;;;;11.12;47.04;98917.05;1731178;81;21006;-65
2022/01/14 07:25:57;;;;;;;20.27;11.90;;;;;;;11.13;46.97;98913.42;1727940;81;21063;-67
2022/01/14 07:28:25;;;;;;;21.80;13.45;;;;;;;11.33;46.63;98909.28;1688278;83;21148;-64
2022/01/14 07:30:55;;;;;;;19.55;12.47;;;;;;;11.09;46.93;98909.16;1726619;81;21492;-65
2022/01/14 07:33:22;;;;;;;18.90;11.78;;;;;;;11.36;46.57;98897.88;1729209;81;21325;-62
2022/01/14 07:35:49;;;;;;;17.70;11.50;;;;;;;10.21;48.61;98895.11;1730310;81;22625;-62
2022/01/14 07:38:15;;;;;;;18.80;11.60;;;;;;;10.52;48.29;98883.02;1727204;81;22442;-62
2022/01/14 07:40:44;;;;;;;18.10;11.85;;;;;;;10.88;47.59;98890.86;1728893;81;21075;-63
2022/01/14 07:43:10;;;;;;;19.12;12.23;;;;;;;11.13;47.01;98889.44;1728057;81;21606;-63
2022/01/14 07:45:37;;;;;;;16.67;11.45;;;;;;;10.85;47.43;98878.77;1725910;81;21016;-63
2022/01/14 07:48:04;;;;;;;17.70;10.65;;;;;;;10.88;47.30;98877.83;1727323;81;21090;-65
2022/01/14 07:50:31;;;;;;;19.02;10.58;;;;;;;10.79;47.56;98877.02;1720241;81;21090;-61
2022/01/14 07:52:57;;;;;;;19.80;12.03;;;;;;;10.92;47.27;98877.67;1718557;81;20891;-62
2022/01/14 07:55:24;;;;;;;17.55;11.30;;;;;;;11.31;46.71;98865.66;1731662;81;21133;-66
2022/01/14 07:57:52;;;;;;;18.20;10.65;;;;;;;11.17;46.73;98857.20;1729047;81;21122;-66
2022/01/14 08:00:19;;;;;;;19.27;12.00;;;;;;;11.29;46.60;98848.11;1726921;81;21108;-62
2022/01/14 08:02:47;;;;;;;18.55;11.78;;;;;;;11.60;45.98;98834.03;1721049;81;21127;-62
2022/01/14 08:05:15;;;;;;;17.67;11.45;;;;;;;11.45;46.25;98831.33;1717103;81;21555;-62
2022/01/14 08:07:47;;;;;;;19.40;12.75;;;;;;;11.63;45.83;98823.12;1715791;83;20959;-66
2022/01/14 08:10:14;;;;;;;19.52;11.73;;;;;;;11.66;45.80;98807.02;1714144;81;21121;-62
2022/01/14 08:12:43;;;;;;;18.92;11.15;;;;;;;11.83;45.67;98801.94;1712404;82;21055;-62
2022/01/14 08:15:13;;;;;;;17.60;11.20;;;;;;;11.73;45.67;98803.80;1709861;81;21213;-62
2022/01/14 08:17:39;;;;;;;17.85;11.00;;;;;;;12.10;45.24;98807.53;1709326;82;20947;-66
2022/01/14 08:20:08;;;;;;;16.55;10.53;;;;;;;11.63;45.93;98798.33;1715552;81;21072;-62
2022/01/14 08:22:35;;;;;;;18.73;11.28;;;;;;;11.82;45.81;98800.33;1717834;81;20999;-61
2022/01/14 08:25:02;;;;;;;19.90;11.48;;;;;;;11.78;45.82;98791.36;1718034;81;21117;-64
2022/01/14 08:27:29;;;;;;;15.60;10.68;;;;;;;11.58;46.28;98783.86;1713062;81;21164;-67
2022/01/14 08:29:58;;;;;;;17.37;11.00;;;;;;;11.94;45.78;98777.67;1716217;81;20968;-63
2022/01/14 08:32:25;;;;;;;16.32;10.25;;;;;;;12.24;45.28;98763.68;1716446;81;21043;-64
2022/01/14 08:34:52;;;;;;;17.27;11.10;;;;;;;12.29;45.27;98751.50;1713988;81;21163;-65
2022/01/14 08:37:18;;;;;;;17.75;10.78;;;;;;;12.22;45.23;98744.30;1717317;81;20928;-63
2022/01/14 08:39:47;;;;;;;14.75;9.55;;;;;;;12.60;44.82;98737.72;1714856;81;21176;-66
2022/01/14 08:42:17;;;;;;;14.80;9.58;;;;;;;12.58;44.68;98722.80;1714047;81;21056;-62
2022/01/14 08:44:45;;;;;;;16.23;10.78;;;;;;;12.64;44.63;98715.31;1716146;81;21071;-63
2022/01/14 08:47:12;;;;;;;19.75;11.12;;;;;;;12.78;44.39;98705.37;1709843;81;21066;-63
2022/01/14 08:49:40;;;;;;;17.67;10.75;;;;;;;12.87;44.18;98678.58;1715912;83;21018;-67
2022/01/14 08:52:13;;;;;;;14.75;9.70;;;;;;;12.93;44.03;98671.62;1687459;83;21083;-63
2022/01/14 08:54:42;;;;;;;15.48;10.13;;;;;;;13.04;43.85;98674.69;1713033;81;20998;-66
2022/01/14 08:57:11;;;;;;;16.07;10.68;;;;;;;13.31;43.49;98658.38;1717136;81;20960;-63
2022/01/14 08:59:40;;;;;;;15.70;10.08;;;;;;;12.65;44.70;98668.53;1715466;81;21015;-67
2022/01/14 09:02:06;;;;;;;14.15;9.53;;;;;;;12.51;45.07;98670.66;1713470;81;21129;-66
2022/01/14 09:04:34;;;;;;;14.23;9.10;;;;;;;12.10;45.84;98660.74;1749576;80;21075;-63
2022/01/14 09:07:01;;;;;;;14.80;9.53;;;;;;;12.16;45.78;98649.38;1748475;80;21010;-63
2022/01/14 09:09:31;;;;;;;13.90;9.65;;;;;;;12.34;45.55;98631.41;1748210;80;21474;-67
2022/01/14 09:12:00;;;;;;;15.75;9.68;;;;;;;12.27;45.73;98628.13;1747267;80;21014;-64
2022/01/14 09:14:27;;;;;;;15.75;9.98;;;;;;;12.38;45.63;98616.05;1746707;80;20991;-64
2022/01/14 09:16:57;;;;;;;13.62;9.60;;;;;;;12.30;45.73;98617.73;1740681;80;21140;-65
2022/01/14 09:19:23;;;;;;;14.07;9.25;;;;;;;11.82;46.75;98610.56;1747838;80;20923;-65
2022/01/14 09:21:50;;;;;;;18.17;10.05;;;;;;;11.51;47.34;98613.04;1745093;80;22110;-64
2022/01/14 09:24:16;;;;;;;14.93;9.55;;;;;;;11.33;47.94;98613.20;1747762;80;21142;-65
2022/01/14 09:26:43;;;;;;;15.85;10.53;;;;;;;11.50;48.56;98608.06;1746040;80;20995;-64
2022/01/14 09:29:13;;;;;;;14.80;9.68;;;;;;;12.05;47.32;98603.20;1748093;80;21198;-62
2022/01/14 09:31:41;;;;;;;15.53;9.55;;;;;;;12.30;46.81;98598.14;1746081;80;21595;-63
2022/01/14 09:34:10;;;;;;;15.53;9.60;;;;;;;12.34;46.50;98602.66;1743572;80;21840;-64
2022/01/14 09:36:36;;;;;;;14.78;10.48;;;;;;;12.46;46.69;98590.05;1745869;80;21055;-65
2022/01/14 09:39:03;;;;;;;16.75;10.55;;;;;;;12.62;46.24;98578.32;1746270;80;21509;-63
2022/01/14 09:41:30;;;;;;;15.63;9.73;;;;;;;13.18;45.30;98555.31;1747457;80;23203;-66
2022/01/14 09:43:57;;;;;;;14.75;9.63;;;;;;;13.28;44.89;98561.51;1744826;80;21119;-66
2022/01/14 09:46:24;;;;;;;15.65;9.18;;;;;;;12.80;45.30;98557.66;1745444;80;22135;-66
2022/01/14 09:48:52;;;;;;;15.95;9.83;;;;;;;12.33;46.46;98547.52;1747262;80;21092;-66
2022/01/14 09:51:19;;;;;;;15.72;9.48;;;;;;;12.03;46.61;98556.13;1745899;80;20871;-65
2022/01/14 09:53:46;;;;;;;14.38;9.63;;;;;;;11.22;48.97;98541.75;1746245;80;21588;-66
2022/01/14 09:56:19;;;;;;;13.68;9.08;;;;;;;11.07;49.79;98527.09;1745326;80;21016;-64
2022/01/14 09:58:48;;;;;;;13.95;9.40;;;;;;;11.33;49.68;98517.47;1749689;80;20932;-65
2022/01/14 10:01:22;;;;;;;15.65;9.33;;;;;;;11.65;49.13;98507.89;1747234;80;21033;-67
2022/01/14 10:03:56;;;;;;;13.48;9.03;;;;;;;11.66;49.13;98504.25;1744607;80;21497;-65
2022/01/14 10:06:54;;;;;;;13.75;8.80;;;;;;;11.62;49.26;98492.70;1751304;80;21144;-65
2022/01/14 10:09:39;;;;;;;13.50;8.75;;;;;;;11.47;49.77;98489.80;1747109;80;21085;-65
2022/01/14 10:12:16;;;;;;;12.70;8.50;;;;;;;11.79;49.40;98480.50;1747262;80;20997;-66
2022/01/14 10:15:09;;;;;;;13.45;8.63;;;;;;;11.63;49.86;98475.52;1744267;80;21037;-68
2022/01/14 10:17:40;;;;;;;13.58;9.05;;;;;;;11.50;50.34;98469.77;1732319;81;21061;-64
2022/01/14 10:20:09;;;;;;;13.38;8.83;;;;;;;11.54;50.85;98457.84;1744574;80;21136;-65
2022/01/14 10:22:44;;;;;;;16.57;9.98;;;;;;;11.75;50.67;98452.48;1743922;81;21623;-67
2022/01/14 10:25:15;;;;;;;14.53;9.90;;;;;;;11.51;51.27;98431.70;1741635;82;21557;-65
2022/01/14 10:27:50;;;;;;;14.05;8.98;;;;;;;11.33;51.85;98420.95;1747626;80;21082;-66
2022/01/14 10:30:31;;;;;;;13.28;9.35;;;;;;;11.71;51.99;98413.53;1737766;81;20990;-65
2022/01/14 10:33:07;;;;;;;16.00;9.88;;;;;;;11.92;51.65;98391.45;1753308;80;21865;-64
2022/01/14 10:35:42;;;;;;;15.23;9.20;;;;;;;11.74;51.93;98379.11;1741307;80;21029;-65
2022/01/14 10:38:12;;;;;;;14.40;9.18;;;;;;;11.92;51.59;98384.13;1747274;80;22492;-65
2022/01/14 10:40:49;;;;;;;15.05;9.30;;;;;;;12.03;51.41;98366.29;1704427;83;21096;-65
2022/01/14 10:43:21;;;;;;;14.50;9.63;;;;;;;12.27;50.89;98356.44;1699287;83;20948;-66
2022/01/14 10:45:48;;;;;;;12.60;8.95;;;;;;;12.11;51.06;98352.83;1708351;82;21133;-66
2022/01/14 10:48:32;;;;;;;14.98;8.73;;;;;;;12.28;50.89;98339.75;1698998;82;21544;-67
2022/01/14 10:51:14;;;;;;;14.80;9.83;;;;;;;12.28;50.80;98339.75;1710485;82;20958;-66
2022/01/14 10:53:53;;;;;;;16.52;10.38;;;;;;;12.05;51.39;98340.74;1678936;84;21138;-66
2022/01/14 10:56:23;;;;;;;16.70;11.15;;;;;;;12.09;51.62;98313.11;1686776;83;25340;-67
2022/01/14 10:58:58;;;;;;;14.23;9.75;;;;;;;11.89;51.76;98301.05;1750025;80;21158;-65
2022/01/14 11:01:25;;;;;;;13.72;9.65;;;;;;;12.22;51.44;98275.40;1741901;80;20949;-65
2022/01/14 11:04:01;;;;;;;12.78;8.58;;;;;;;12.18;51.60;98273.78;1744282;80;20975;-64
2022/01/14 11:06:32;;;;;;;13.93;8.60;;;;;;;12.00;52.07;98275.89;1750090;81;21050;-65
2022/01/14 11:09:12;;;;;;;10.68;7.42;;;;;;;12.43;51.40;98283.51;1748093;80;22205;-63
2022/01/14 11:11:45;;;;;;;12.95;8.13;;;;;;;11.74;52.31;98276.80;1751797;80;21124;-63
2022/01/14 11:14:14;;;;;;;11.70;8.00;;;;;;;11.68;53.29;98280.38;1746285;80;20990;-63
2022/01/14 11:16:40;;;;;;;11.28;8.20;;;;;;;11.44;54.33;98276.63;1743448;82;21122;-62
2022/01/14 11:19:09;;;;;;;12.78;8.45;;;;;;;11.73;54.39;98264.78;1743494;81;20861;-66
2022/01/14 11:24:30;;;;;;;12.25;7.65;;;;;;;12.02;53.63;98255.04;1749506;80;21784;-63
2022/01/14 11:27:06;;;;;;;14.28;8.35;;;;;;;12.18;53.17;98250.80;1706778;83;21058;-66
2022/01/14 11:29:37;;;;;;;9.55;6.67;;;;;;;12.17;53.01;98233.55;1711031;83;21023;-61
2022/01/14 11:32:05;;;;;;;;;;;;;;;12.39;52.43;98219.98;1711893;82;21177;-60
2022/01/14 11:34:46;;;;;;;10.88;7.05;;;;;;;12.43;52.32;98218.19;1712838;82;20212;-60
2022/01/14 11:37:33;;;;;;;11.30;7.65;;;;;;;12.64;51.63;98198.53;1714217;81;21456;-61
2022/01/14 11:40:06;;;;;;;11.38;7.85;;;;;;;12.50;52.29;98190.83;1751583;80;21489;-60
2022/01/14 11:42:59;;;;;;;11.15;7.15;;;;;;;12.60;52.03;98202.67;1746913;80;20954;-61
2022/01/14 11:45:49;;;;;;;10.18;7.33;;;;;;;12.49;52.21;98196.28;1750074;80;21079;-63
2022/01/14 11:48:43;;;;;;;10.63;7.17;;;;;;;12.52;52.25;98187.95;1735103;80;20990;-62
2022/01/14 11:51:05;;;;;;;11.83;7.55;;;;;;;12.54;52.09;98192.41;1749239;80;21830;-65